Airfield :
LOGIN :

Register | Disclaimer

   EN    FR    IT 

 










Legend :    VFR   Marginal VFR   IFR   Intensive IFR   Very Intensive IFR
Visi :
Ceiling :
>= 8 km
>= 3000ft
5 to 8 km
1000 to 3000 ft
1500m to 5 km
500 to 1000 ft
800 to 1500m
200 to 500 ft
< 800m
< 200 ft
Symbols :   Thunderstorms  Fog  Heavy snow  Heavy precipitations  Wind > 20 kt
SIGMETs :     Misc.  Thunderstorms  Icing  Turbulence  Mountain Waves  Volcanic Ashes






- Airport Elevation : 1079 ft


ETIK - Illesheim Air Base

CURRENT METAR :
  • 211556Z 00000KT 4800 BR BKN016 BKN100 05/05 A2980 RMK AO2A SLPNO T00460046 $

EXPIRED METARs :
  • 211528Z AUTO 00000KT 8000 BR M 05/05 A2980 RMK AO2 SLPNO $
  • 211456Z 06002KT 3200 BR BKN015 05/04 A2981 RMK SLP105 WND DATA ESTMD ALSTG/SLP ESTMD
  • 211356Z VRB02KT 4000 BR SCT007 BKN018 06/04 A2981

TAF TAF ETIK
Valid from the 21 at 15:00 until the 22 at 21:00 UTC


211508Z 2115/2221 VRB06KT 3200 BR OVC015 QNH2978INS
TEMPO 2115/2119 OVC010
BECMG 2120/2121 13006KT 0800 FG OVC005 QNH2977INS
BECMG 2209/2210 12009KT 5000 BR OVC006 QNH2976INS
TEMPO 2210/2212 OVC004
BECMG 2212/2213 11012G18KT 9999 NSW OVC010 QNH2972INS TX06/2115Z TN01/2202Z



MET'MAP, your aeronautical weather chart ! - Copyright ORBIFLY December 2007 - Disclaimer

ORBIFLY MET'MAP TEAM :

Programming & Development : Alexandra Zaïnal
Concept & Development : Baudouin d'Aumeries
Co-Development & Prog : Marc-Olivier Méhu
Technical & hardware support : Manuel Goepfert

Contact : metmap@orbifly.com




SOURCES & CREDITS :

   NOAA